首页
METAR-TAF:

METAR-TAF

机场 :

罗兹, 波兰

纬度: 51-43-19N, 经度: 019-23-53E, 海拔: 184米

当前天气观测

该预报发布于13分钟前的05:00 UTC
风速3节,风向
温度 17°C
湿度 100%
气压 1007 hPa
能見度: 7000
阴天层高于2600英尺
小雨

METAR: EPLL 040500Z 08003KT 7000 -RA OVC026 17/17 Q1007

时间: 07:13 (05:13 UTC)

预报

该预报发布于5小时和43分钟前的23:30 UTC
预报有效从04日的 00点(UTC)到 04日的 24点(UTC)
风速2节,风向多变
能见度10公里或以上
1500米以下无云,无积雨云
几率 40% :
短暂存在
从 04日的 00点(UTC)到 04日的 06点(UTC)
能見度: 3000
多云层高于1200英尺
小雨, 毛毛雨, 轻雾
成为
从 04日的 08点(UTC)到 04日的 11点(UTC)
风速10节,风向
多云层高于1200英尺
短暂存在
从 04日的 09点(UTC)到 04日的 17点(UTC)
多云层高于600英尺
小雨
几率 40% :
短暂存在
从 04日的 10点(UTC)到 04日的 17点(UTC)
能見度: 4000
多云层高于1000英尺, 积雨云.
阵雨, 轻雾

TAF: EPLL 032330Z 0400/0424 VRB02KT CAVOK PROB40 TEMPO 0400/0406 3000 -RADZ BR BKN012 BECMG 0408/0411 36010KT BKN012 TEMPO 0409/0417 -RA BKN006 PROB40 TEMPO 0410/0417 4000 SHRA BR BKN010CB

超过4000个机场的气象观测和天气预报(METAR&TAF报告)。

可查询的气象台以黄色和红色小点在地图上表示。

将鼠标移到小点上方,可查看气象台名称。

然后点击查看天气观测和预报。

如需切换地图:点击带黑十字的绿色按钮放大地图;点击带横线的绿色按钮缩小地图;或者点击绿色箭头查看邻近地区的地图。


METAR-TAF: